createdAt,value
2022-12-12T00:01:14.578Z,-3.70
2022-12-12T00:03:42.830Z,-3.70
2022-12-12T00:06:11.056Z,-3.70
2022-12-12T00:08:39.090Z,-3.70
2022-12-12T00:11:09.736Z,-3.80
2022-12-12T00:13:38.367Z,-3.80
2022-12-12T00:16:07.715Z,-3.80
2022-12-12T00:18:37.881Z,-3.80
2022-12-12T00:21:08.525Z,-3.80
2022-12-12T00:23:36.598Z,-3.80
2022-12-12T00:26:09.824Z,-3.80
2022-12-12T00:28:37.905Z,-3.80
2022-12-12T00:31:06.362Z,-3.80
2022-12-12T00:33:34.505Z,-3.80
2022-12-12T00:36:02.642Z,-3.90
2022-12-12T00:38:30.745Z,-3.90
2022-12-12T00:41:00.363Z,-3.90
2022-12-12T00:43:29.912Z,-3.90
2022-12-12T00:45:59.887Z,-3.90
2022-12-12T00:48:28.127Z,-3.90
2022-12-12T00:50:56.561Z,-4.00
2022-12-12T00:53:25.330Z,-3.90
2022-12-12T00:55:57.474Z,-4.00
2022-12-12T00:58:25.768Z,-3.90
2022-12-12T01:00:55.744Z,-3.80
2022-12-12T01:03:23.828Z,-3.90
2022-12-12T01:05:52.031Z,-3.90
2022-12-12T01:08:20.115Z,-3.90
2022-12-12T01:10:48.281Z,-3.90
2022-12-12T01:13:16.384Z,-3.90
2022-12-12T01:15:44.635Z,-3.90
2022-12-12T01:18:14.095Z,-3.90
2022-12-12T01:20:43.104Z,-3.90
2022-12-12T01:23:11.153Z,-3.90
2022-12-12T01:25:39.554Z,-3.90
2022-12-12T01:28:09.416Z,-3.80
2022-12-12T01:30:38.561Z,-3.80
2022-12-12T01:33:06.721Z,-3.80
2022-12-12T01:35:36.546Z,-3.90
2022-12-12T01:38:04.602Z,-3.90
2022-12-12T01:40:32.730Z,-3.90
2022-12-12T01:43:00.840Z,-3.90
2022-12-12T01:46:14.699Z,-3.90
2022-12-12T01:48:47.006Z,-4.00
2022-12-12T01:51:20.656Z,-4.00
2022-12-12T01:53:50.885Z,-4.00
2022-12-12T01:56:22.185Z,-4.10
2022-12-12T01:58:52.182Z,-4.00
2022-12-12T02:01:21.526Z,-4.00
2022-12-12T02:03:50.352Z,-4.00
2022-12-12T02:06:23.436Z,-4.00
2022-12-12T02:08:54.389Z,-4.10
2022-12-12T02:11:22.692Z,-4.00
2022-12-12T02:13:51.583Z,-4.00
2022-12-12T02:16:30.637Z,-4.10
2022-12-12T02:19:10.772Z,-4.00
2022-12-12T02:21:46.376Z,-4.10
2022-12-12T02:24:51.007Z,-4.10
2022-12-12T02:27:44.174Z,-4.10
2022-12-12T02:30:20.294Z,-4.00
2022-12-12T02:33:11.295Z,-4.00
2022-12-12T02:35:49.646Z,-4.00
2022-12-12T02:38:28.681Z,-4.10
2022-12-12T02:41:07.423Z,-4.00
2022-12-12T02:43:44.801Z,-4.00
2022-12-12T02:46:19.376Z,-4.00
2022-12-12T02:48:52.216Z,-4.00
2022-12-12T02:51:21.941Z,-4.00
2022-12-12T02:53:50.085Z,-4.00
2022-12-12T02:56:48.259Z,-4.10
2022-12-12T02:59:22.290Z,-4.10
2022-12-12T03:02:02.295Z,-4.10
2022-12-12T03:04:59.074Z,-4.10
2022-12-12T03:07:50.311Z,-4.10
2022-12-12T03:10:32.454Z,-4.10
2022-12-12T03:13:11.494Z,-4.10
2022-12-12T03:15:46.427Z,-4.10
2022-12-12T03:18:23.850Z,-4.10
2022-12-12T03:20:59.689Z,-4.00
2022-12-12T03:23:31.500Z,-4.10
2022-12-12T03:26:02.144Z,-4.10
2022-12-12T03:28:35.668Z,-4.10
2022-12-12T03:31:08.313Z,-4.20
2022-12-12T03:33:43.014Z,-4.10
2022-12-12T03:36:17.572Z,-4.40
2022-12-12T03:38:56.950Z,-4.50
2022-12-12T03:41:31.387Z,-4.60
2022-12-12T03:44:03.365Z,-4.60
2022-12-12T03:46:37.278Z,-4.60
2022-12-12T03:49:10.002Z,-4.60
2022-12-12T03:51:44.157Z,-4.70
2022-12-12T03:54:18.992Z,-4.70
2022-12-12T03:56:50.618Z,-4.70
2022-12-12T03:59:27.293Z,-4.70
2022-12-12T04:02:01.266Z,-4.80
2022-12-12T04:04:35.125Z,-4.80
2022-12-12T04:07:12.804Z,-4.80
2022-12-12T04:09:58.737Z,-4.80
2022-12-12T04:12:52.383Z,-4.80
2022-12-12T04:15:53.119Z,-4.80
2022-12-12T04:18:28.327Z,-4.80
2022-12-12T04:21:21.696Z,-4.80
2022-12-12T04:24:00.919Z,-4.80
2022-12-12T04:26:40.366Z,-4.80
2022-12-12T04:29:16.969Z,-4.80
2022-12-12T04:31:51.568Z,-4.70
2022-12-12T04:34:27.400Z,-4.70
2022-12-12T04:36:55.693Z,-4.60
2022-12-12T04:39:27.061Z,-4.50
2022-12-12T04:41:57.478Z,-4.60
2022-12-12T04:44:28.312Z,-4.50
2022-12-12T04:46:59.280Z,-4.50
2022-12-12T04:49:29.768Z,-4.40
2022-12-12T04:52:02.823Z,-4.50
2022-12-12T04:54:39.723Z,-4.50
2022-12-12T04:57:11.151Z,-4.30
2022-12-12T04:59:39.650Z,-4.20
2022-12-12T05:02:18.555Z,-4.20
2022-12-12T05:04:53.809Z,-4.20
2022-12-12T05:07:28.770Z,-4.20
2022-12-12T05:09:59.468Z,-4.20
2022-12-12T05:12:27.975Z,-4.20
2022-12-12T05:14:56.057Z,-4.20
2022-12-12T05:17:29.522Z,-4.20
2022-12-12T05:19:57.854Z,-4.30
2022-12-12T05:22:26.034Z,-4.30
2022-12-12T05:24:54.126Z,-4.30
2022-12-12T05:27:23.666Z,-4.30
2022-12-12T05:29:51.864Z,-4.40
2022-12-12T05:32:20.012Z,-4.30
2022-12-12T05:34:48.186Z,-4.30
2022-12-12T05:37:16.309Z,-4.30
2022-12-12T05:39:44.426Z,-4.30
2022-12-12T05:42:12.474Z,-4.30
2022-12-12T05:44:41.960Z,-4.50
2022-12-12T05:47:10.107Z,-4.60
2022-12-12T05:49:38.213Z,-2.60
2022-12-12T05:52:06.637Z,-3.30
2022-12-12T05:54:34.882Z,-4.50
2022-12-12T05:57:03.011Z,-4.70
2022-12-12T05:59:31.090Z,-4.80
2022-12-12T06:02:00.577Z,-4.80
2022-12-12T06:04:28.930Z,-4.70
2022-12-12T06:06:57.113Z,-4.70
2022-12-12T06:09:25.404Z,-4.60
2022-12-12T06:11:53.550Z,-4.60
2022-12-12T06:14:21.708Z,-4.60
2022-12-12T06:16:49.834Z,-4.70
2022-12-12T06:19:21.220Z,-4.70
2022-12-12T06:21:49.348Z,-4.70
2022-12-12T06:24:17.469Z,-4.70
2022-12-12T06:26:45.819Z,-4.80
2022-12-12T06:29:14.801Z,-3.40
2022-12-12T06:31:43.191Z,-4.00
2022-12-12T06:34:11.417Z,-4.20
2022-12-12T06:36:41.179Z,-4.90
2022-12-12T06:39:09.744Z,-4.90
2022-12-12T06:41:37.994Z,-4.90
2022-12-12T06:44:06.662Z,-4.90
2022-12-12T06:46:34.898Z,-4.90
2022-12-12T06:49:03.104Z,-4.90
2022-12-12T06:51:33.392Z,-4.90
2022-12-12T06:54:03.009Z,-5.00
2022-12-12T06:56:31.224Z,-5.00
2022-12-12T06:59:01.011Z,-5.00
2022-12-12T07:01:29.093Z,-4.90
2022-12-12T07:03:57.217Z,-4.90
2022-12-12T07:06:25.290Z,-4.90
2022-12-12T07:08:53.934Z,-4.90
2022-12-12T07:11:25.864Z,-5.00
2022-12-12T07:13:57.056Z,-5.10
2022-12-12T07:16:25.862Z,-5.10
2022-12-12T07:18:54.223Z,-5.20
2022-12-12T07:21:22.475Z,-5.30
2022-12-12T07:23:50.607Z,-5.30
2022-12-12T07:26:20.823Z,-5.40
2022-12-12T07:28:51.534Z,-5.40
2022-12-12T07:31:21.664Z,-5.40
2022-12-12T07:33:49.903Z,-5.40
2022-12-12T07:36:18.368Z,-5.40
2022-12-12T07:38:46.891Z,-5.40
2022-12-12T07:41:17.102Z,-5.40
2022-12-12T07:43:51.060Z,-5.40
2022-12-12T07:46:22.502Z,-5.50
2022-12-12T07:48:51.027Z,-5.60
2022-12-12T07:51:20.078Z,-5.60
2022-12-12T07:53:48.969Z,-5.70
2022-12-12T07:56:18.347Z,-5.90
2022-12-12T07:58:47.022Z,-5.90
2022-12-12T08:01:17.993Z,-6.10
2022-12-12T08:03:47.675Z,-6.10
2022-12-12T08:06:17.367Z,-6.30
2022-12-12T08:08:45.633Z,-6.30
2022-12-12T08:11:15.642Z,-6.30
2022-12-12T08:13:44.831Z,-6.30
2022-12-12T08:16:17.689Z,-6.50
2022-12-12T08:18:46.092Z,-6.50
2022-12-12T08:21:21.449Z,-6.50
2022-12-12T08:23:51.337Z,-6.40
2022-12-12T08:26:20.233Z,-6.40
2022-12-12T08:28:49.271Z,-6.30
2022-12-12T08:31:20.566Z,-6.40
2022-12-12T08:33:50.519Z,-6.20
2022-12-12T08:36:21.050Z,-6.20
2022-12-12T08:38:49.580Z,-6.10
2022-12-12T08:41:18.623Z,-6.00
2022-12-12T08:43:46.927Z,-5.90
2022-12-12T08:46:18.058Z,-5.70
2022-12-12T08:48:48.237Z,-5.60
2022-12-12T08:51:16.695Z,-5.70
2022-12-12T08:53:45.698Z,-5.50
2022-12-12T08:56:14.345Z,-5.50
2022-12-12T08:58:44.072Z,-5.60
2022-12-12T09:01:13.353Z,-5.50
2022-12-12T09:03:41.814Z,-5.40
2022-12-12T09:06:12.670Z,-5.30
2022-12-12T09:08:40.842Z,-5.20
2022-12-12T09:11:09.429Z,-5.20
2022-12-12T09:13:38.589Z,-5.10
2022-12-12T09:16:08.332Z,-5.20
2022-12-12T09:18:39.775Z,-5.00
2022-12-12T09:21:11.508Z,-5.00
2022-12-12T09:23:39.597Z,-4.90
2022-12-12T09:26:09.287Z,-4.90
2022-12-12T09:28:37.518Z,-4.80
2022-12-12T09:31:06.754Z,-4.90
2022-12-12T09:33:35.358Z,-4.80
2022-12-12T09:36:05.492Z,-4.80
2022-12-12T09:38:35.499Z,-4.70
2022-12-12T09:41:11.418Z,-4.50
2022-12-12T09:43:45.096Z,-4.50
2022-12-12T09:46:22.936Z,-4.30
2022-12-12T09:48:51.062Z,-4.40
2022-12-12T09:51:19.283Z,-4.20
2022-12-12T09:53:51.438Z,-4.20
2022-12-12T09:56:23.750Z,-4.40
2022-12-12T09:58:58.597Z,-4.50
2022-12-12T10:01:32.597Z,-4.40
2022-12-12T10:04:10.464Z,-4.40
2022-12-12T10:06:44.965Z,-4.30
2022-12-12T10:09:39.084Z,-4.20
2022-12-12T10:12:13.125Z,-4.10
2022-12-12T10:14:46.351Z,-4.00
2022-12-12T10:17:17.887Z,-4.00
2022-12-12T10:19:50.157Z,-3.90
2022-12-12T10:22:29.872Z,-3.70
2022-12-12T10:25:04.541Z,-3.50
2022-12-12T10:27:32.691Z,-3.40
2022-12-12T10:30:08.512Z,-3.30
2022-12-12T10:32:44.391Z,-3.10
2022-12-12T10:35:26.084Z,-3.00
2022-12-12T10:38:07.394Z,-2.80
2022-12-12T10:40:46.631Z,-2.40
2022-12-12T10:43:22.272Z,-2.20
2022-12-12T10:46:11.867Z,-2.20
2022-12-12T10:48:40.471Z,-2.20
2022-12-12T10:51:12.586Z,-2.10
2022-12-12T10:53:42.259Z,-1.90
2022-12-12T10:56:19.559Z,-1.70
2022-12-12T10:58:55.566Z,-1.50
2022-12-12T11:02:00.213Z,-1.20
2022-12-12T11:04:17.586Z,-0.70
2022-12-12T11:06:49.221Z,-0.80
2022-12-12T11:09:20.885Z,-1.20
2022-12-12T11:12:00.739Z,-1.30
2022-12-12T11:14:33.757Z,-1.10
2022-12-12T11:17:02.661Z,-1.00
2022-12-12T11:19:38.860Z,-0.80
2022-12-12T11:22:07.134Z,-0.50
2022-12-12T11:24:37.296Z,-0.40
2022-12-12T11:27:08.335Z,-0.30
2022-12-12T11:29:43.827Z,-0.60
2022-12-12T11:32:15.630Z,-0.30
2022-12-12T11:34:48.615Z,-0.20
2022-12-12T11:37:18.523Z,-0.40
2022-12-12T11:39:50.759Z,-0.40
2022-12-12T11:42:22.860Z,-0.40
2022-12-12T11:45:00.062Z,-0.40
2022-12-12T11:47:29.778Z,-0.10
2022-12-12T11:49:59.301Z,0.00
2022-12-12T11:52:30.112Z,0.40
2022-12-12T11:54:59.330Z,0.50
2022-12-12T11:57:45.191Z,0.00
2022-12-12T12:00:17.775Z,0.60
2022-12-12T12:03:22.145Z,1.10
2022-12-12T12:06:04.122Z,0.30
2022-12-12T12:08:43.160Z,0.80
2022-12-12T12:11:21.125Z,1.60
2022-12-12T12:14:24.716Z,1.60
2022-12-12T12:17:02.468Z,0.40
2022-12-12T12:19:37.784Z,0.00
2022-12-12T12:22:19.958Z,-0.10
2022-12-12T12:25:16.233Z,0.10
2022-12-12T12:27:54.149Z,-0.10
2022-12-12T12:30:25.237Z,0.50
2022-12-12T12:33:12.790Z,0.90
2022-12-12T12:35:57.282Z,0.70
2022-12-12T12:38:34.842Z,0.00
2022-12-12T12:41:20.582Z,0.10
2022-12-12T12:44:01.284Z,0.30
2022-12-12T12:46:38.480Z,-0.10
2022-12-12T12:49:14.292Z,-0.30
2022-12-12T12:51:50.525Z,-0.40
2022-12-12T12:54:25.070Z,-0.40
2022-12-12T12:56:59.137Z,-0.40
2022-12-12T12:59:33.738Z,0.10
2022-12-12T13:02:13.681Z,0.90
2022-12-12T13:04:48.439Z,1.30
2022-12-12T13:07:25.922Z,0.70
2022-12-12T13:10:03.318Z,0.60
2022-12-12T13:12:36.620Z,1.30
2022-12-12T13:15:08.414Z,2.30
2022-12-12T13:17:49.550Z,3.00
2022-12-12T13:20:21.198Z,3.50
2022-12-12T13:23:13.597Z,3.70
2022-12-12T13:25:49.510Z,3.40
2022-12-12T13:28:22.668Z,3.20
2022-12-12T13:31:13.038Z,3.40
2022-12-12T13:33:47.526Z,3.60
2022-12-12T13:36:25.980Z,1.70
2022-12-12T13:39:00.276Z,3.00
2022-12-12T13:41:28.782Z,3.60
2022-12-12T13:43:58.486Z,3.50
2022-12-12T13:46:42.340Z,3.20
2022-12-12T13:49:31.378Z,3.70
2022-12-12T13:52:28.067Z,3.60
2022-12-12T13:55:12.653Z,4.20
2022-12-12T13:58:18.425Z,3.80
2022-12-12T14:00:46.855Z,3.50
2022-12-12T14:03:29.930Z,3.60
2022-12-12T14:06:10.684Z,3.90
2022-12-12T14:08:47.734Z,3.60
2022-12-12T14:11:27.468Z,3.60
2022-12-12T14:14:18.822Z,3.60
2022-12-12T14:16:54.173Z,3.70
2022-12-12T14:19:33.151Z,3.90
2022-12-12T14:22:02.849Z,3.50
2022-12-12T14:24:56.750Z,3.60
2022-12-12T14:28:13.904Z,3.70
2022-12-12T14:30:47.592Z,3.10
2022-12-12T14:33:46.675Z,2.70
2022-12-12T14:36:37.197Z,2.70
2022-12-12T14:39:17.200Z,2.80
2022-12-12T14:41:47.481Z,2.20
2022-12-12T14:44:36.077Z,1.60
2022-12-12T14:47:09.054Z,0.80
2022-12-12T14:49:37.533Z,0.00
2022-12-12T14:52:05.977Z,-0.50
2022-12-12T14:54:36.997Z,-0.80
2022-12-12T14:57:08.678Z,-1.20
2022-12-12T14:59:39.957Z,-1.30
2022-12-12T15:02:20.702Z,-1.40
2022-12-12T15:04:51.792Z,-1.80
2022-12-12T15:07:26.268Z,-2.10
2022-12-12T15:09:56.183Z,-2.00
2022-12-12T15:12:26.670Z,-2.40
2022-12-12T15:14:57.392Z,-2.20
2022-12-12T15:17:30.451Z,-2.40
2022-12-12T15:20:01.427Z,-2.60
2022-12-12T15:22:32.497Z,-2.60
2022-12-12T15:25:03.954Z,-2.70
2022-12-12T15:27:38.571Z,-2.90
2022-12-12T15:30:14.406Z,-3.10
2022-12-12T15:32:48.238Z,-3.10
2022-12-12T15:35:19.342Z,-3.10
2022-12-12T15:37:56.575Z,-3.30
2022-12-12T15:40:29.672Z,-3.60
2022-12-12T15:43:01.016Z,-3.60
2022-12-12T15:45:33.421Z,-3.80
2022-12-12T15:48:02.336Z,-3.80
2022-12-12T15:50:37.121Z,-3.90
2022-12-12T15:53:16.134Z,-4.00
2022-12-12T15:55:54.315Z,-4.00
2022-12-12T15:58:29.437Z,-4.10
2022-12-12T16:01:21.739Z,-4.10
2022-12-12T16:03:59.085Z,-4.20
2022-12-12T16:06:29.029Z,-4.30
2022-12-12T16:09:03.220Z,-4.30
2022-12-12T16:11:41.608Z,-4.20
2022-12-12T16:14:29.056Z,-4.10
2022-12-12T16:17:03.831Z,-4.20
2022-12-12T16:19:38.923Z,-4.40
2022-12-12T16:22:09.699Z,-4.50
2022-12-12T16:24:47.775Z,-4.60
2022-12-12T16:27:19.293Z,-4.60
2022-12-12T16:29:47.984Z,-4.60
2022-12-12T16:32:18.450Z,-4.70
2022-12-12T16:34:46.811Z,-4.70
2022-12-12T16:37:16.415Z,-4.70
2022-12-12T16:39:44.995Z,-4.80
2022-12-12T16:42:15.092Z,-4.80
2022-12-12T16:44:45.979Z,-4.80
2022-12-12T16:47:17.468Z,-4.90
2022-12-12T16:49:45.957Z,-4.90
2022-12-12T16:52:14.940Z,-4.90
2022-12-12T16:54:46.887Z,-4.90
2022-12-12T16:57:19.239Z,-5.00
2022-12-12T16:59:48.741Z,-4.20
2022-12-12T17:02:20.768Z,-3.90
2022-12-12T17:04:49.493Z,-4.80
2022-12-12T17:07:17.734Z,-4.80
2022-12-12T17:09:45.969Z,-5.10
2022-12-12T17:12:15.634Z,-5.00
2022-12-12T17:14:46.213Z,-5.10
2022-12-12T17:17:15.733Z,-5.30
2022-12-12T17:19:43.815Z,-5.30
2022-12-12T17:22:12.214Z,-5.20
2022-12-12T17:24:40.467Z,-5.30
2022-12-12T17:27:08.593Z,-5.30
2022-12-12T17:29:36.718Z,-5.40
2022-12-12T17:32:05.253Z,-5.20
2022-12-12T17:34:34.921Z,-5.10
2022-12-12T17:37:03.175Z,-5.30
2022-12-12T17:39:31.262Z,-5.30
2022-12-12T17:41:59.429Z,-5.50
2022-12-12T17:44:27.658Z,-5.60
2022-12-12T17:46:55.733Z,-5.70
2022-12-12T17:49:23.869Z,-5.70
2022-12-12T17:51:53.351Z,-5.60
2022-12-12T17:54:21.532Z,-5.80
2022-12-12T17:56:49.671Z,-5.90
2022-12-12T17:59:18.023Z,-5.70
2022-12-12T18:01:48.703Z,-5.90
2022-12-12T18:04:16.974Z,-6.00
2022-12-12T18:06:45.174Z,-6.10
2022-12-12T18:09:14.940Z,-6.10
2022-12-12T18:11:43.896Z,-6.20
2022-12-12T18:14:15.360Z,-6.30
2022-12-12T18:16:45.757Z,-6.40
2022-12-12T18:19:13.915Z,-6.50
2022-12-12T18:24:32.991Z,-6.50
2022-12-12T18:27:03.512Z,-6.70
2022-12-12T18:29:32.261Z,-6.70
2022-12-12T18:32:00.874Z,-6.70
2022-12-12T18:34:29.068Z,-6.70
2022-12-12T18:36:57.142Z,-6.80
2022-12-12T18:39:25.365Z,-6.90
2022-12-12T18:41:54.839Z,-6.90
2022-12-12T18:44:22.900Z,-7.00
2022-12-12T18:46:51.896Z,-7.10
2022-12-12T18:49:20.219Z,-7.10
2022-12-12T18:51:48.499Z,-7.10
2022-12-12T18:54:17.376Z,-7.10
2022-12-12T18:56:46.912Z,-7.00
2022-12-12T18:59:17.490Z,-7.10
2022-12-12T19:01:46.194Z,-7.00
2022-12-12T19:04:21.206Z,-7.10
2022-12-12T19:06:53.042Z,-7.20
2022-12-12T19:09:22.076Z,-7.20
2022-12-12T19:11:52.404Z,-7.10
2022-12-12T19:14:23.882Z,-7.10
2022-12-12T19:16:52.054Z,-7.10
2022-12-12T19:19:20.506Z,-7.20
2022-12-12T19:21:48.674Z,-7.20
2022-12-12T19:24:16.764Z,-7.20
2022-12-12T19:26:46.050Z,-7.20
2022-12-12T19:29:18.961Z,-7.10
2022-12-12T19:31:52.551Z,-7.10
2022-12-12T19:34:24.242Z,-7.10
2022-12-12T19:36:53.314Z,-7.10
2022-12-12T19:39:21.425Z,-7.00
2022-12-12T19:41:49.529Z,-6.80
2022-12-12T19:44:17.750Z,-7.00
2022-12-12T19:46:46.299Z,-7.00
2022-12-12T19:49:17.501Z,-7.00
2022-12-12T19:51:46.543Z,-7.00
2022-12-12T19:54:17.130Z,-7.20
2022-12-12T19:56:46.317Z,-7.30
2022-12-12T19:59:15.921Z,-7.00
2022-12-12T20:01:44.573Z,-7.20
2022-12-12T20:04:17.597Z,-7.20
2022-12-12T20:06:46.886Z,-7.00
2022-12-12T20:09:16.793Z,-7.00
2022-12-12T20:11:45.892Z,-6.70
2022-12-12T20:14:16.213Z,-6.70
2022-12-12T20:16:44.627Z,-6.90
2022-12-12T20:19:15.297Z,-7.10
2022-12-12T20:22:00.777Z,-7.30
2022-12-12T20:24:30.113Z,-7.40
2022-12-12T20:26:59.589Z,-7.50
2022-12-12T20:29:28.749Z,-7.50
2022-12-12T20:31:56.974Z,-7.70
2022-12-12T20:34:26.635Z,-7.70
2022-12-12T20:36:55.642Z,-7.80
2022-12-12T20:39:26.036Z,-7.90
2022-12-12T20:41:56.547Z,-7.80
2022-12-12T20:44:25.585Z,-7.90
2022-12-12T20:46:54.030Z,-7.80
2022-12-12T20:49:24.629Z,-7.80
2022-12-12T20:51:56.325Z,-7.90
2022-12-12T20:54:25.493Z,-8.10
2022-12-12T20:56:54.739Z,-7.90
2022-12-12T20:59:23.611Z,-7.70
2022-12-12T21:01:52.126Z,-7.90
2022-12-12T21:04:20.646Z,-7.90
2022-12-12T21:06:49.859Z,-8.00
2022-12-12T21:09:25.498Z,-8.10
2022-12-12T21:11:55.500Z,-8.00
2022-12-12T21:14:25.248Z,-7.80
2022-12-12T21:16:53.846Z,-7.80
2022-12-12T21:19:23.429Z,-7.80
2022-12-12T21:21:52.066Z,-7.80
2022-12-12T21:24:22.043Z,-8.00
2022-12-12T21:26:50.656Z,-7.90
2022-12-12T21:29:19.445Z,-8.00
2022-12-12T21:31:51.660Z,-8.20
2022-12-12T21:34:21.862Z,-8.20
2022-12-12T21:36:52.626Z,-8.20
2022-12-12T21:39:23.125Z,-8.20
2022-12-12T21:41:51.679Z,-8.10
2022-12-12T21:44:20.844Z,-8.20
2022-12-12T21:46:49.072Z,-8.20
2022-12-12T21:49:26.879Z,-8.30
2022-12-12T21:51:55.997Z,-8.30
2022-12-12T21:54:26.010Z,-8.20
2022-12-12T21:56:54.226Z,-8.30
2022-12-12T21:59:22.650Z,-8.20
2022-12-12T22:01:50.833Z,-8.20
2022-12-12T22:04:19.013Z,-7.80
2022-12-12T22:06:47.395Z,-8.20
2022-12-12T22:09:15.832Z,-8.30
2022-12-12T22:11:49.680Z,-8.20
2022-12-12T22:14:20.224Z,-8.30
2022-12-12T22:16:48.563Z,-8.50
2022-12-12T22:19:18.127Z,-8.50
2022-12-12T22:21:47.623Z,-8.60
2022-12-12T22:24:16.581Z,-8.50
2022-12-12T22:26:47.571Z,-8.60
2022-12-12T22:29:17.307Z,-8.70
2022-12-12T22:31:46.385Z,-8.80
2022-12-12T22:34:16.754Z,-8.70
2022-12-12T22:36:46.632Z,-8.80
2022-12-12T22:39:16.706Z,-8.80
2022-12-12T22:41:46.942Z,-8.90
2022-12-12T22:44:16.837Z,-9.00
2022-12-12T22:46:45.988Z,-9.10
2022-12-12T22:49:16.419Z,-9.00
2022-12-12T22:51:45.372Z,-8.70
2022-12-12T22:54:14.241Z,-8.70
2022-12-12T22:56:43.074Z,-8.80
2022-12-12T22:59:14.253Z,-8.80
2022-12-12T23:01:42.855Z,-8.70
2022-12-12T23:04:13.409Z,-8.80
2022-12-12T23:06:42.333Z,-8.80
2022-12-12T23:09:15.225Z,-8.90
2022-12-12T23:11:44.356Z,-8.90
2022-12-12T23:14:17.683Z,-8.80
2022-12-12T23:16:46.587Z,-8.80
2022-12-12T23:19:17.177Z,-8.90
2022-12-12T23:21:46.062Z,-9.00
2022-12-12T23:24:15.062Z,-9.00
2022-12-12T23:26:43.844Z,-8.90
2022-12-12T23:29:16.846Z,-9.00
2022-12-12T23:31:45.877Z,-9.00
2022-12-12T23:34:17.828Z,-9.10
2022-12-12T23:36:45.976Z,-9.10
2022-12-12T23:39:15.099Z,-9.00
2022-12-12T23:41:45.141Z,-9.10
2022-12-12T23:44:16.756Z,-9.10
2022-12-12T23:46:45.616Z,-9.20
2022-12-12T23:49:16.829Z,-9.30
2022-12-12T23:51:46.586Z,-9.20
2022-12-12T23:54:17.226Z,-9.20
2022-12-12T23:56:45.710Z,-9.30
2022-12-12T23:59:18.133Z,-9.40
